Terminal Aerodrome Forecast
Issued by NWS

Home | Current Version | Previous Version | Text Only | Print | Product List | Glossary On
Versions: 1 2 3 4 5 6 7 8 9 10 11 12 13 14 15 16 17 18 19 20 21 22
000
FTUS44 KLZK 012300
TAFLIT
TAF
KLIT 012323Z 0200/0224 10005KT P6SM SCT035 BKN050
     FM020900 VRB03KT P6SM VCFG SCT025 BKN050
      TEMPO 0209/0213 4SM BR BKN025
     FM021500 15004KT P6SM SCT035 BKN050=

USA.gov is the U.S. government's official web portal to all federal, state and local government web resources and services.